Time;durP1;ratioP1;P1;durP2;ratioP2;P2;SDS_P1;SDS_P2;PMS_P1;PMS_P2;Temp;Humidity;BMP_temperature;BMP_pressure;BME280_temperature;BME280_humidity;BME280_pressure;Samples;Min_cycle;Max_cycle;Signal;HPM_P1;HPM_P2
2022/04/09 00:00:40;;;;;;;8.27;3.53;;;3.10;99.90;;;;;;5102824;28;20248;-61
2022/04/09 00:03:08;;;;;;;10.73;3.53;;;3.10;99.90;;;;;;5103367;27;21397;-61
2022/04/09 00:05:36;;;;;;;14.37;3.43;;;3.10;99.90;;;;;;5099789;28;20200;-61
2022/04/09 00:08:05;;;;;;;13.97;3.40;;;3.00;99.90;;;;;;5100677;28;20264;-61
2022/04/09 00:10:33;;;;;;;14.77;3.43;;;3.00;99.90;;;;;;5098852;28;20295;-61
2022/04/09 00:13:02;;;;;;;8.23;3.63;;;3.00;99.90;;;;;;5102185;27;20252;-61
2022/04/09 00:15:32;;;;;;;18.53;3.47;;;3.00;99.90;;;;;;5103268;27;20219;-60
2022/04/09 00:18:00;;;;;;;7.53;3.33;;;3.00;99.90;;;;;;5099060;28;20871;-61
2022/04/09 00:20:29;;;;;;;17.90;4.10;;;3.00;99.90;;;;;;5090023;28;20190;-61
2022/04/09 00:22:58;;;;;;;15.47;3.97;;;3.10;99.90;;;;;;5103021;27;20207;-60
2022/04/09 00:25:27;;;;;;;9.30;3.07;;;3.20;99.90;;;;;;5100661;27;20252;-64
2022/04/09 00:27:55;;;;;;;10.03;3.60;;;3.20;99.90;;;;;;5103745;28;20644;-61
2022/04/09 00:30:24;;;;;;;12.60;3.17;;;3.20;99.90;;;;;;5100777;28;20214;-61
2022/04/09 00:32:53;;;;;;;13.33;3.70;;;3.30;99.90;;;;;;5089519;28;20196;-60
2022/04/09 00:35:22;;;;;;;14.17;3.70;;;3.30;99.90;;;;;;5097622;28;20218;-61
2022/04/09 00:37:51;;;;;;;12.83;3.73;;;3.30;99.90;;;;;;5105903;28;20240;-61
2022/04/09 00:40:25;;;;;;;13.27;3.57;;;3.40;99.90;;;;;;5111488;27;20209;-61
2022/04/09 00:42:54;;;;;;;14.37;3.77;;;3.50;99.90;;;;;;5104904;27;20297;-61
2022/04/09 00:45:23;;;;;;;7.17;2.90;;;3.50;99.90;;;;;;5100856;28;20203;-61
2022/04/09 00:47:53;;;;;;;15.23;3.50;;;3.50;99.90;;;;;;5105121;27;20244;-60
2022/04/09 00:50:21;;;;;;;14.17;2.90;;;3.50;99.90;;;;;;5111063;27;20198;-61
2022/04/09 00:52:51;;;;;;;15.30;3.10;;;3.50;99.90;;;;;;5105879;27;20271;-61
2022/04/09 00:56:13;;;;;;;11.83;3.70;;;3.50;99.90;;;;;;5104183;27;20269;-61
2022/04/09 00:58:15;;;;;;;19.53;3.63;;;3.40;99.90;;;;;;5103662;28;20511;-61
2022/04/09 01:00:43;;;;;;;16.10;4.20;;;3.40;99.90;;;;;;5097544;27;20187;-61
2022/04/09 01:03:18;;;;;;;13.50;3.87;;;3.30;99.90;;;;;;5099508;28;20195;-61
2022/04/09 01:05:48;;;;;;;8.77;3.30;;;3.30;99.90;;;;;;5098192;27;20202;-61
2022/04/09 01:08:18;;;;;;;10.57;3.53;;;3.20;99.90;;;;;;5100893;28;20282;-61
2022/04/09 01:10:47;;;;;;;11.63;3.60;;;3.20;99.90;;;;;;5099004;27;20199;-61
2022/04/09 01:13:16;;;;;;;18.27;3.80;;;3.10;99.90;;;;;;5096874;27;20230;-61
2022/04/09 01:15:45;;;;;;;10.30;3.37;;;3.10;99.90;;;;;;5080517;28;20229;-61
2022/04/09 01:18:16;;;;;;;14.40;3.67;;;3.00;99.90;;;;;;5098696;28;20503;-60
2022/04/09 01:20:45;;;;;;;17.10;3.47;;;2.90;99.90;;;;;;5097252;28;20197;-60
2022/04/09 01:23:15;;;;;;;18.07;4.70;;;2.80;99.90;;;;;;5102592;28;20259;-61
2022/04/09 01:25:43;;;;;;;20.07;4.20;;;2.90;99.90;;;;;;5103577;28;20297;-61
2022/04/09 01:28:12;;;;;;;14.03;3.60;;;2.90;99.90;;;;;;5097615;28;20318;-61
2022/04/09 01:30:41;;;;;;;10.93;3.63;;;2.90;99.90;;;;;;5098211;27;20207;-61
2022/04/09 01:33:15;;;;;;;14.87;3.50;;;2.80;99.90;;;;;;5107202;27;20715;-61
2022/04/09 01:35:44;;;;;;;18.53;3.80;;;2.80;99.90;;;;;;5104826;28;20707;-61
2022/04/09 01:38:14;;;;;;;14.97;3.60;;;2.90;99.90;;;;;;5105419;28;20294;-61
2022/04/09 01:40:43;;;;;;;12.47;3.70;;;2.90;99.90;;;;;;5115169;27;20224;-60
2022/04/09 01:43:11;;;;;;;15.80;3.80;;;2.90;99.90;;;;;;5104757;27;20206;-61
2022/04/09 01:45:40;;;;;;;9.40;3.90;;;2.90;99.90;;;;;;5103282;28;20195;-60
2022/04/09 01:48:08;;;;;;;16.77;4.27;;;3.00;99.90;;;;;;5113910;27;21508;-60
2022/04/09 01:50:37;;;;;;;16.43;3.57;;;3.00;99.90;;;;;;5100726;28;20203;-61
2022/04/09 01:53:06;;;;;;;15.10;3.70;;;2.90;99.90;;;;;;5099528;27;20199;-61
2022/04/09 01:55:35;;;;;;;9.87;3.90;;;2.90;99.90;;;;;;5100811;28;20214;-60
2022/04/09 01:58:07;;;;;;;15.43;4.47;;;2.90;99.90;;;;;;5097260;28;20198;-60
2022/04/09 02:00:37;;;;;;;9.60;3.50;;;2.80;99.90;;;;;;5102643;28;20202;-60
2022/04/09 02:03:06;;;;;;;18.83;3.60;;;2.80;99.90;;;;;;5096606;28;20604;-60
2022/04/09 02:05:35;;;;;;;17.83;4.10;;;2.70;99.90;;;;;;5101834;28;20687;-60
2022/04/09 02:08:04;;;;;;;16.17;3.87;;;2.60;99.90;;;;;;5099239;27;20194;-60
2022/04/09 02:10:34;;;;;;;13.33;3.87;;;2.60;99.90;;;;;;5104506;28;20222;-60
2022/04/09 02:13:04;;;;;;;14.47;4.30;;;2.50;99.90;;;;;;5097425;28;20191;-61
2022/04/09 02:15:34;;;;;;;17.20;4.90;;;2.40;99.90;;;;;;5096271;28;20594;-60
2022/04/09 02:18:03;;;;;;;10.50;4.47;;;2.40;99.90;;;;;;5099565;28;20194;-60
2022/04/09 02:20:33;;;;;;;14.80;4.90;;;2.30;99.90;;;;;;5095974;28;20297;-63
2022/04/09 02:23:02;;;;;;;12.37;4.80;;;2.30;99.90;;;;;;5100773;28;20278;-60
2022/04/09 02:25:30;;;;;;;15.53;4.63;;;2.30;99.90;;;;;;5099833;28;20206;-60
2022/04/09 02:28:03;;;;;;;21.70;4.83;;;2.30;99.90;;;;;;5097701;27;20353;-60
2022/04/09 02:30:32;;;;;;;21.30;4.97;;;2.30;99.90;;;;;;5092120;28;20685;-60
2022/04/09 02:33:00;;;;;;;17.43;4.83;;;2.30;99.90;;;;;;5094606;28;20194;-60
2022/04/09 02:35:29;;;;;;;20.17;4.73;;;2.30;99.90;;;;;;5095808;28;20300;-60
2022/04/09 02:37:58;;;;;;;18.43;4.63;;;2.20;99.90;;;;;;5102270;27;20195;-60
2022/04/09 02:40:26;;;;;;;17.20;4.43;;;2.30;99.90;;;;;;5100333;28;20246;-60
2022/04/09 02:42:56;;;;;;;24.40;4.70;;;2.30;99.90;;;;;;5100055;28;20195;-60
2022/04/09 02:45:26;;;;;;;15.07;5.23;;;2.20;99.90;;;;;;5098059;28;20198;-63
2022/04/09 02:47:54;;;;;;;23.67;5.20;;;2.20;99.90;;;;;;5096134;28;20294;-60
2022/04/09 02:50:23;;;;;;;14.83;5.17;;;2.20;99.90;;;;;;5098891;28;20199;-61
2022/04/09 02:52:52;;;;;;;12.10;4.63;;;2.20;99.90;;;;;;5103526;28;20251;-61
2022/04/09 02:55:20;;;;;;;15.80;5.00;;;2.20;99.90;;;;;;5100266;28;20271;-61
2022/04/09 02:57:50;;;;;;;13.07;4.30;;;2.20;99.90;;;;;;5095110;28;20294;-60
2022/04/09 03:00:19;;;;;;;19.30;5.53;;;2.20;99.90;;;;;;5098972;28;20240;-61
2022/04/09 03:02:49;;;;;;;17.60;5.47;;;2.20;99.90;;;;;;5097085;28;21386;-61
2022/04/09 03:05:17;;;;;;;17.57;4.20;;;2.20;99.90;;;;;;5090428;28;20298;-61
2022/04/09 03:07:46;;;;;;;22.40;5.07;;;2.20;99.90;;;;;;5097036;28;20286;-60
2022/04/09 03:10:14;;;;;;;15.90;4.83;;;2.20;99.90;;;;;;5103649;27;20303;-61
2022/04/09 03:12:43;;;;;;;19.40;5.30;;;2.20;99.90;;;;;;5097781;28;20194;-61
2022/04/09 03:15:12;;;;;;;20.10;5.17;;;2.10;99.90;;;;;;5111648;28;20199;-61
2022/04/09 03:17:41;;;;;;;13.67;4.70;;;2.10;99.90;;;;;;5097481;28;20202;-60
2022/04/09 03:20:13;;;;;;;15.07;4.50;;;2.10;99.90;;;;;;5098555;28;20621;-61
2022/04/09 03:22:45;;;;;;;20.30;5.67;;;2.00;99.90;;;;;;5093896;28;20217;-61
2022/04/09 03:25:14;;;;;;;17.33;5.00;;;2.00;99.90;;;;;;5097833;28;20293;-60
2022/04/09 03:27:43;;;;;;;24.37;5.50;;;1.90;99.90;;;;;;5099505;28;20305;-61
2022/04/09 03:30:12;;;;;;;25.17;5.47;;;2.00;99.90;;;;;;5096834;28;20212;-61
2022/04/09 03:32:41;;;;;;;23.50;4.80;;;1.90;99.90;;;;;;5095424;28;20281;-61
2022/04/09 03:35:13;;;;;;;16.43;5.40;;;2.00;99.90;;;;;;5101781;28;20191;-61
2022/04/09 03:37:41;;;;;;;17.37;4.87;;;2.10;99.90;;;;;;5098232;28;20772;-61
2022/04/09 03:40:12;;;;;;;20.60;5.50;;;2.20;99.90;;;;;;5098243;28;20210;-60
2022/04/09 03:42:40;;;;;;;22.30;5.20;;;2.30;99.90;;;;;;5106423;28;20279;-61
2022/04/09 03:45:10;;;;;;;16.13;5.33;;;2.40;99.90;;;;;;5100538;27;20199;-61
2022/04/09 03:47:38;;;;;;;14.83;4.97;;;2.40;99.90;;;;;;5101999;28;20218;-61
2022/04/09 03:50:07;;;;;;;16.23;4.83;;;2.40;99.90;;;;;;5101764;28;20195;-61
2022/04/09 03:52:38;;;;;;;21.53;4.80;;;2.40;99.90;;;;;;5100872;28;20226;-61
2022/04/09 03:55:07;;;;;;;27.13;5.10;;;2.50;99.90;;;;;;5104348;28;20205;-60
2022/04/09 03:57:36;;;;;;;19.53;4.80;;;2.50;99.90;;;;;;5104754;27;20219;-61
2022/04/09 04:00:05;;;;;;;18.77;5.17;;;2.60;99.90;;;;;;5100432;28;20294;-61
2022/04/09 04:02:34;;;;;;;17.50;4.70;;;2.70;99.90;;;;;;5097988;28;21598;-61
2022/04/09 04:05:03;;;;;;;22.43;5.03;;;2.70;99.90;;;;;;5103268;27;20681;-61
2022/04/09 04:07:32;;;;;;;14.87;5.00;;;2.80;99.90;;;;;;5092404;27;20187;-61
2022/04/09 04:10:03;;;;;;;20.97;5.30;;;2.80;99.90;;;;;;5100271;28;20194;-61
2022/04/09 04:12:33;;;;;;;15.70;4.93;;;2.80;99.90;;;;;;5100245;28;20202;-60
2022/04/09 04:15:02;;;;;;;28.07;6.10;;;2.80;99.90;;;;;;5097152;28;20535;-60
2022/04/09 04:17:38;;;;;;;20.20;5.17;;;2.80;99.90;;;;;;5097902;27;20597;-61
2022/04/09 04:20:08;;;;;;;23.10;5.30;;;2.80;99.90;;;;;;5101541;28;20236;-60
2022/04/09 04:22:37;;;;;;;21.17;5.20;;;2.80;99.90;;;;;;5101149;28;20195;-60
2022/04/09 04:25:09;;;;;;;16.73;5.10;;;2.80;99.90;;;;;;5102354;28;20202;-60
2022/04/09 04:27:43;;;;;;;19.63;5.23;;;2.70;99.90;;;;;;5107759;27;20198;-61
2022/04/09 04:30:12;;;;;;;14.13;4.93;;;2.70;99.90;;;;;;5110527;27;20278;-61
2022/04/09 04:32:40;;;;;;;16.57;4.90;;;2.70;99.90;;;;;;5099981;28;20186;-61
2022/04/09 04:35:10;;;;;;;26.27;5.57;;;2.60;99.90;;;;;;5097457;28;20248;-61
2022/04/09 04:37:38;;;;;;;17.70;5.00;;;2.60;99.90;;;;;;5103341;28;20214;-61
2022/04/09 04:40:09;;;;;;;18.97;5.00;;;2.60;99.90;;;;;;5107094;27;20291;-61
2022/04/09 04:42:38;;;;;;;20.77;5.27;;;2.60;99.90;;;;;;5105247;28;20372;-60
2022/04/09 04:45:08;;;;;;;24.30;5.20;;;2.50;99.90;;;;;;5101340;28;20605;-61
2022/04/09 04:47:43;;;;;;;18.73;4.80;;;2.50;99.90;;;;;;5097347;28;20187;-61
2022/04/09 04:50:12;;;;;;;22.13;5.10;;;2.50;99.90;;;;;;5102108;28;20622;-61
2022/04/09 04:52:41;;;;;;;17.00;5.20;;;2.50;99.90;;;;;;5101349;28;20334;-61
2022/04/09 04:55:12;;;;;;;19.63;5.70;;;2.50;99.90;;;;;;5104375;27;20198;-61
2022/04/09 04:57:42;;;;;;;19.90;5.07;;;2.40;99.90;;;;;;5101463;28;20226;-61
2022/04/09 05:00:11;;;;;;;17.30;5.27;;;2.40;99.90;;;;;;5100603;27;20207;-61
2022/04/09 05:02:40;;;;;;;18.50;4.80;;;2.30;99.90;;;;;;5098505;27;20203;-61
2022/04/09 05:05:09;;;;;;;23.90;4.87;;;2.40;99.90;;;;;;5098214;28;20195;-61
2022/04/09 05:07:42;;;;;;;19.47;5.23;;;2.40;99.90;;;;;;5103036;28;20214;-60
2022/04/09 05:10:17;;;;;;;21.17;5.43;;;2.40;99.90;;;;;;5096890;27;20194;-61
2022/04/09 05:12:46;;;;;;;27.10;6.03;;;2.40;99.90;;;;;;5102205;27;20291;-61
2022/04/09 05:15:16;;;;;;;23.97;5.07;;;2.30;99.90;;;;;;5085403;28;20198;-61
2022/04/09 05:17:45;;;;;;;22.70;5.57;;;2.40;99.90;;;;;;5099551;28;20843;-61
2022/04/09 05:20:15;;;;;;;15.23;4.90;;;2.40;99.90;;;;;;5099694;28;20281;-61
2022/04/09 05:22:46;;;;;;;17.37;5.37;;;2.40;99.90;;;;;;5099228;27;20428;-61
2022/04/09 05:25:20;;;;;;;16.00;5.07;;;2.40;99.90;;;;;;5101249;27;20209;-61
2022/04/09 05:27:50;;;;;;;22.80;5.67;;;2.40;99.90;;;;;;5101039;27;20217;-61
2022/04/09 05:30:19;;;;;;;18.93;4.90;;;2.50;99.90;;;;;;5102674;27;20788;-61
2022/04/09 05:32:47;;;;;;;16.40;5.30;;;2.50;99.90;;;;;;5099647;27;20541;-61
2022/04/09 05:35:16;;;;;;;21.57;5.27;;;2.60;99.90;;;;;;5098424;28;20178;-62
2022/04/09 05:37:46;;;;;;;23.77;5.27;;;2.60;99.90;;;;;;5099769;28;20213;-61
2022/04/09 05:40:15;;;;;;;16.60;5.20;;;2.80;99.90;;;;;;5100489;27;20191;-61
2022/04/09 05:42:45;;;;;;;21.87;5.53;;;3.00;99.90;;;;;;5100663;28;20620;-62
2022/04/09 05:45:14;;;;;;;21.43;5.90;;;3.20;99.90;;;;;;5105684;28;20599;-61
2022/04/09 05:47:42;;;;;;;17.70;4.87;;;3.40;99.90;;;;;;5102567;28;20214;-61
2022/04/09 05:50:11;;;;;;;15.20;3.93;;;3.50;99.90;;;;;;5104116;27;20229;-61
2022/04/09 05:52:40;;;;;;;19.23;5.13;;;3.70;99.90;;;;;;5096785;28;20215;-61
2022/04/09 05:55:09;;;;;;;20.10;4.33;;;4.00;99.90;;;;;;5102831;27;20670;-61
2022/04/09 05:57:37;;;;;;;20.97;4.80;;;4.20;99.90;;;;;;5098371;28;20497;-61
2022/04/09 06:00:10;;;;;;;18.10;4.37;;;4.40;99.90;;;;;;5100587;27;20222;-61
2022/04/09 06:02:39;;;;;;;19.73;4.50;;;4.70;99.90;;;;;;5097122;28;20736;-61
2022/04/09 06:05:09;;;;;;;16.07;4.40;;;4.90;99.90;;;;;;5099309;27;20256;-61
2022/04/09 06:07:37;;;;;;;12.03;3.90;;;5.10;99.90;;;;;;5099456;28;20686;-62
2022/04/09 06:10:06;;;;;;;12.57;4.20;;;5.30;99.90;;;;;;5100814;28;20204;-61
2022/04/09 06:12:35;;;;;;;17.00;4.40;;;5.40;99.90;;;;;;5098967;28;20539;-61
2022/04/09 06:15:04;;;;;;;23.30;5.67;;;5.40;99.90;;;;;;5080538;28;20574;-61
2022/04/09 06:17:36;;;;;;;16.87;3.97;;;5.60;99.90;;;;;;5100912;27;20222;-61
2022/04/09 06:20:05;;;;;;;25.73;5.63;;;6.00;99.90;;;;;;5097468;28;20194;-61
2022/04/09 06:22:38;;;;;;;19.73;3.90;;;6.30;99.90;;;;;;5095617;27;20203;-61
2022/04/09 06:25:08;;;;;;;9.43;3.90;;;6.60;99.90;;;;;;5100557;28;20203;-61
2022/04/09 06:27:39;;;;;;;16.27;4.50;;;6.90;99.90;;;;;;5096910;28;20195;-61
2022/04/09 06:30:09;;;;;;;17.40;4.20;;;7.20;99.90;;;;;;5099648;28;20697;-61
2022/04/09 06:32:39;;;;;;;17.43;4.43;;;7.50;99.90;;;;;;5098729;28;20791;-61
2022/04/09 06:35:08;;;;;;;18.77;4.20;;;7.80;99.90;;;;;;5095542;28;20281;-62
2022/04/09 06:37:40;;;;;;;17.47;4.77;;;8.10;99.90;;;;;;5101117;27;20698;-61
2022/04/09 06:40:09;;;;;;;14.07;4.20;;;8.50;99.90;;;;;;5106502;28;20195;-61
2022/04/09 06:42:38;;;;;;;18.87;6.00;;;8.80;99.90;;;;;;5104755;28;20691;-61
2022/04/09 06:45:08;;;;;;;14.63;4.43;;;9.00;99.90;;;;;;5099618;28;20284;-61
2022/04/09 06:47:39;;;;;;;25.67;7.20;;;9.30;99.90;;;;;;5097537;28;20255;-62
2022/04/09 06:50:09;;;;;;;16.80;5.73;;;9.70;99.90;;;;;;5098009;27;20753;-61
2022/04/09 06:52:37;;;;;;;17.93;5.70;;;10.00;99.90;;;;;;5097570;28;20671;-61
2022/04/09 06:55:09;;;;;;;13.07;4.10;;;10.30;99.90;;;;;;5096371;28;20609;-61
2022/04/09 06:57:38;;;;;;;16.73;4.87;;;10.70;99.90;;;;;;5098451;28;20267;-61
2022/04/09 07:00:09;;;;;;;15.77;4.20;;;11.00;99.90;;;;;;5089402;28;20195;-61
2022/04/09 07:02:39;;;;;;;12.27;3.87;;;11.20;99.90;;;;;;5096261;28;20566;-61
2022/04/09 07:05:09;;;;;;;19.33;5.40;;;11.50;99.90;;;;;;5095166;28;20199;-61
2022/04/09 07:07:37;;;;;;;12.67;3.83;;;11.60;99.90;;;;;;5097973;28;20547;-61
2022/04/09 07:10:08;;;;;;;14.33;6.07;;;11.50;99.90;;;;;;5096604;28;20567;-62
2022/04/09 07:12:38;;;;;;;18.47;6.23;;;11.80;99.90;;;;;;5099275;28;20195;-62
2022/04/09 07:15:07;;;;;;;15.37;4.57;;;12.00;99.90;;;;;;5097701;28;20252;-62
2022/04/09 07:17:36;;;;;;;12.17;4.60;;;12.30;99.90;;;;;;5099205;28;20581;-62
2022/04/09 07:20:08;;;;;;;11.17;3.57;;;12.50;99.90;;;;;;5095543;28;20208;-62
2022/04/09 07:22:37;;;;;;;12.07;4.03;;;12.60;99.90;;;;;;5107927;28;20700;-62
2022/04/09 07:25:07;;;;;;;17.43;5.43;;;12.80;99.90;;;;;;5104522;28;20213;-62
2022/04/09 07:27:37;;;;;;;21.03;6.43;;;13.20;99.90;;;;;;5102072;28;20723;-62
2022/04/09 07:30:06;;;;;;;13.70;3.90;;;13.60;99.90;;;;;;5105218;27;20607;-62
2022/04/09 07:32:35;;;;;;;10.77;4.30;;;13.70;99.90;;;;;;5104018;28;20212;-62
2022/04/09 07:35:06;;;;;;;12.10;4.37;;;13.90;99.90;;;;;;5101876;28;20539;-62
2022/04/09 07:37:40;;;;;;;9.43;3.57;;;14.20;99.90;;;;;;5101345;28;20273;-60
2022/04/09 07:40:10;;;;;;;20.77;7.53;;;14.30;99.90;;;;;;5114428;27;20572;-60
2022/04/09 07:42:39;;;;;;;11.80;5.00;;;14.60;99.90;;;;;;5108552;28;20464;-60
2022/04/09 07:45:09;;;;;;;13.93;4.90;;;14.70;99.90;;;;;;5112428;27;20212;-61
2022/04/09 07:47:37;;;;;;;19.67;5.27;;;14.80;99.90;;;;;;5106783;28;20187;-61
2022/04/09 07:50:10;;;;;;;14.80;4.37;;;14.80;99.90;;;;;;5106139;27;20741;-61
2022/04/09 07:52:40;;;;;;;12.13;4.97;;;15.00;99.90;;;;;;5109687;27;20195;-60
2022/04/09 07:55:11;;;;;;;8.97;3.37;;;15.10;99.90;;;;;;5110102;28;20205;-61
2022/04/09 07:57:40;;;;;;;6.60;3.50;;;15.20;99.90;;;;;;5106989;27;20210;-61
2022/04/09 08:00:09;;;;;;;13.50;5.20;;;15.20;99.90;;;;;;5102851;28;20282;-61
2022/04/09 08:02:37;;;;;;;9.47;3.33;;;15.20;99.90;;;;;;5110246;27;20255;-61
2022/04/09 08:05:10;;;;;;;8.97;3.80;;;15.20;99.90;;;;;;5102734;28;20711;-61
2022/04/09 08:07:40;;;;;;;5.97;3.40;;;15.30;99.90;;;;;;5109688;27;20226;-61
2022/04/09 08:10:11;;;;;;;7.20;3.03;;;15.70;99.90;;;;;;5096167;28;20282;-61
2022/04/09 08:12:41;;;;;;;11.13;5.37;;;16.20;99.90;;;;;;5113342;27;20205;-62
2022/04/09 08:15:10;;;;;;;10.23;3.73;;;16.10;99.90;;;;;;5116236;27;20264;-61
2022/04/09 08:17:42;;;;;;;9.23;3.37;;;16.20;99.90;;;;;;5108207;28;20707;-61
2022/04/09 08:20:14;;;;;;;7.47;3.57;;;16.70;99.90;;;;;;5106801;27;20195;-61
2022/04/09 08:22:42;;;;;;;8.80;3.40;;;17.20;99.90;;;;;;5109294;28;20646;-61
2022/04/09 08:25:11;;;;;;;9.47;3.70;;;17.50;99.90;;;;;;5110653;28;20194;-62
2022/04/09 08:27:42;;;;;;;5.47;3.57;;;17.60;99.90;;;;;;5105179;28;20665;-61
2022/04/09 08:30:12;;;;;;;7.63;4.20;;;17.30;99.90;;;;;;5106125;28;20196;-61
2022/04/09 08:32:40;;;;;;;13.77;4.90;;;17.00;99.90;;;;;;5113277;27;20199;-62
2022/04/09 08:35:09;;;;;;;12.00;5.50;;;17.00;99.90;;;;;;5107293;28;20695;-61
2022/04/09 08:37:41;;;;;;;11.80;4.93;;;17.00;99.90;;;;;;5108769;27;20191;-61
2022/04/09 08:40:14;;;;;;;11.77;4.50;;;17.10;99.90;;;;;;5112683;27;20238;-62
2022/04/09 08:42:43;;;;;;;13.93;5.63;;;17.60;99.90;;;;;;5110966;28;20224;-62
2022/04/09 08:45:11;;;;;;;10.83;5.73;;;17.70;99.90;;;;;;5109512;27;20192;-62
2022/04/09 08:47:42;;;;;;;10.23;5.87;;;17.90;99.90;;;;;;5121010;27;20191;-62
2022/04/09 08:50:12;;;;;;;11.50;5.13;;;17.80;99.90;;;;;;5121485;27;20191;-61
2022/04/09 08:52:44;;;;;;;7.70;4.57;;;17.70;99.90;;;;;;5106543;28;20227;-61
2022/04/09 08:55:13;;;;;;;6.50;3.23;;;17.00;99.90;;;;;;5113170;27;20281;-61
2022/04/09 08:57:43;;;;;;;6.67;3.50;;;17.30;99.90;;;;;;5106924;27;20284;-61
2022/04/09 09:00:14;;;;;;;8.20;4.23;;;18.00;99.90;;;;;;5115048;27;20597;-61
2022/04/09 09:02:50;;;;;;;8.30;3.53;;;18.20;99.90;;;;;;5115844;27;20425;-61
2022/04/09 09:05:30;;;;;;;8.07;3.60;;;18.10;99.90;;;;;;5113333;27;20613;-60
2022/04/09 09:08:00;;;;;;;7.20;3.47;;;17.40;99.90;;;;;;5107252;27;20196;-60
2022/04/09 09:10:29;;;;;;;3.93;3.13;;;17.60;99.90;;;;;;5121952;27;20279;-61
2022/04/09 09:12:59;;;;;;;4.60;3.00;;;18.00;99.90;;;;;;5107907;28;20194;-61
2022/04/09 09:15:28;;;;;;;11.80;3.60;;;17.80;99.90;;;;;;5110829;28;20199;-61
2022/04/09 09:17:57;;;;;;;7.37;3.50;;;17.10;99.90;;;;;;5111367;27;20205;-61
2022/04/09 09:20:27;;;;;;;4.03;2.70;;;17.20;99.90;;;;;;5106149;28;20257;-62
2022/04/09 09:22:55;;;;;;;5.63;3.13;;;18.00;99.90;;;;;;5089115;28;20190;-62
2022/04/09 09:25:25;;;;;;;5.33;3.00;;;19.20;99.90;;;;;;5103544;27;20195;-62
2022/04/09 09:27:58;;;;;;;5.67;3.10;;;19.60;99.90;;;;;;5104919;28;20291;-62
2022/04/09 09:30:27;;;;;;;6.10;3.40;;;18.90;99.90;;;;;;5109225;28;20189;-62
2022/04/09 09:33:07;;;;;;;6.43;3.07;;;18.80;99.90;;;;;;5100369;28;20256;-62
2022/04/09 09:35:59;;;;;;;6.20;2.53;;;19.70;99.80;;;;;;5112743;27;20194;-63
2022/04/09 09:38:28;;;;;;;5.97;2.90;;;19.40;97.40;;;;;;5100440;27;20206;-62
2022/04/09 09:41:01;;;;;;;5.73;3.33;;;17.80;99.00;;;;;;5111956;27;20585;-62
2022/04/09 09:43:30;;;;;;;6.60;3.07;;;17.70;99.90;;;;;;5108717;28;20208;-62
2022/04/09 09:45:59;;;;;;;7.97;3.13;;;18.40;99.90;;;;;;5113255;27;20214;-61
2022/04/09 09:48:29;;;;;;;4.60;2.63;;;18.40;99.70;;;;;;5107642;27;20207;-62
2022/04/09 09:50:59;;;;;;;3.73;2.57;;;17.60;99.20;;;;;;5113659;27;20203;-62
2022/04/09 09:53:29;;;;;;;6.23;2.67;;;16.60;99.10;;;;;;5104748;28;20210;-61
2022/04/09 09:56:00;;;;;;;5.60;3.03;;;15.40;99.80;;;;;;5099022;27;20195;-60
2022/04/09 09:58:30;;;;;;;4.33;2.80;;;14.60;99.90;;;;;;5095372;28;20371;-61
2022/04/09 10:01:16;;;;;;;6.47;2.97;;;14.10;99.90;;;;;;5102757;28;20285;-60
2022/04/09 10:04:23;;;;;;;9.43;3.30;;;14.30;99.90;;;;;;5101986;28;20509;-61
2022/04/09 10:07:29;;;;;;;3.53;3.23;;;14.10;99.90;;;;;;5094365;28;20737;-60
2022/04/09 10:10:01;;;;;;;5.40;3.43;;;14.00;99.90;;;;;;5112374;27;20266;-60
2022/04/09 10:12:38;;;;;;;5.63;3.33;;;13.80;99.90;;;;;;5100701;28;20205;-61
2022/04/09 10:15:07;;;;;;;6.87;3.10;;;14.30;99.90;;;;;;5098567;28;20264;-60
2022/04/09 10:17:38;;;;;;;5.57;2.97;;;15.30;99.90;;;;;;5097268;28;20190;-61
2022/04/09 10:20:08;;;;;;;6.83;3.47;;;16.00;99.90;;;;;;5100970;28;20495;-61
2022/04/09 10:22:40;;;;;;;3.37;2.87;;;16.10;99.90;;;;;;5099643;28;20226;-61
2022/04/09 10:25:09;;;;;;;5.10;2.67;;;15.40;99.90;;;;;;5101802;28;20584;-61
2022/04/09 10:27:40;;;;;;;5.37;3.20;;;14.70;99.90;;;;;;5102384;27;20859;-61
2022/04/09 10:30:24;;;;;;;5.07;3.37;;;14.10;99.90;;;;;;5097252;28;20212;-61
2022/04/09 10:32:56;;;;;;;6.53;3.17;;;13.50;99.90;;;;;;5111129;27;20207;-61
2022/04/09 10:35:30;;;;;;;5.30;3.70;;;13.10;99.90;;;;;;5100554;28;20698;-60
2022/04/09 10:38:23;;;;;;;5.20;3.70;;;12.70;99.90;;;;;;5105127;28;20205;-60
2022/04/09 10:41:30;;;;;;;5.60;3.10;;;12.60;99.90;;;;;;5104144;27;20764;-61
2022/04/09 10:44:03;;;;;;;4.63;2.90;;;14.20;99.90;;;;;;5105377;27;20681;-61
2022/04/09 10:46:36;;;;;;;8.53;2.33;;;16.00;99.90;;;;;;5104765;28;20274;-61
2022/04/09 10:49:22;;;;;;;2.60;2.40;;;16.10;99.90;;;;;;5104773;28;20202;-61
2022/04/09 10:52:14;;;;;;;5.30;2.80;;;15.10;99.90;;;;;;5099745;28;20276;-61
2022/04/09 10:55:23;;;;;;;4.90;3.53;;;14.20;99.90;;;;;;5101355;28;20217;-60
2022/04/09 10:58:00;;;;;;;5.17;3.23;;;13.30;99.90;;;;;;5103063;28;20671;-60
2022/04/09 11:00:37;;;;;;;10.33;3.60;;;12.70;99.90;;;;;;5100023;28;20754;-60
2022/04/09 11:03:16;;;;;;;4.27;3.10;;;12.20;99.90;;;;;;5105728;28;20197;-60
2022/04/09 11:05:44;;;;;;;4.43;2.87;;;11.80;99.90;;;;;;5105218;28;20233;-61
2022/04/09 11:08:17;;;;;;;3.20;2.33;;;12.80;99.90;;;;;;5103706;28;20212;-60
2022/04/09 11:10:46;;;;;;;2.27;1.60;;;14.00;99.90;;;;;;5096575;28;20197;-61
2022/04/09 11:13:14;;;;;;;5.60;2.37;;;14.80;99.90;;;;;;5098819;28;20193;-60
2022/04/09 11:15:54;;;;;;;5.93;2.00;;;14.30;99.90;;;;;;5098499;28;20612;-60
2022/04/09 11:18:23;;;;;;;3.03;1.93;;;13.60;99.90;;;;;;5097506;28;20209;-60
2022/04/09 11:20:54;;;;;;;4.67;2.30;;;14.30;99.90;;;;;;5102010;28;20259;-61
2022/04/09 11:23:25;;;;;;;2.10;2.00;;;15.50;99.90;;;;;;5097835;28;20218;-62
2022/04/09 11:25:53;;;;;;;4.00;1.90;;;16.80;99.90;;;;;;5108963;28;20258;-62
2022/04/09 11:28:22;;;;;;;2.47;1.40;;;17.90;99.90;;;;;;5104175;27;20219;-62
2022/04/09 11:30:58;;;;;;;1.90;1.70;;;18.20;98.00;;;;;;5102138;28;20202;-61
2022/04/09 11:33:26;;;;;;;1.70;1.60;;;18.00;96.40;;;;;;5097743;28;20203;-61
2022/04/09 11:35:55;;;;;;;2.90;1.67;;;16.80;97.80;;;;;;5100160;28;20561;-61
2022/04/09 11:38:24;;;;;;;2.17;1.50;;;16.20;97.50;;;;;;5104972;28;20195;-61
2022/04/09 11:40:54;;;;;;;1.97;1.30;;;16.40;96.80;;;;;;5107894;28;20234;-61
2022/04/09 11:43:24;;;;;;;2.73;1.43;;;16.90;96.80;;;;;;5106103;28;20195;-61
2022/04/09 11:45:53;;;;;;;2.67;1.40;;;17.40;95.50;;;;;;5097638;28;20183;-61
2022/04/09 11:48:25;;;;;;;2.57;1.63;;;18.00;97.10;;;;;;5105559;28;20198;-61
2022/04/09 11:50:54;;;;;;;3.47;2.27;;;18.50;97.60;;;;;;5096236;28;20269;-61
2022/04/09 11:53:24;;;;;;;2.33;2.20;;;18.80;95.90;;;;;;5079977;28;20228;-61
2022/04/09 11:56:00;;;;;;;4.97;1.90;;;18.50;96.50;;;;;;5105713;28;20187;-60
2022/04/09 11:58:31;;;;;;;2.73;1.87;;;17.20;95.80;;;;;;5097963;28;20194;-60
2022/04/09 12:01:00;;;;;;;2.87;1.90;;;16.00;96.40;;;;;;5109679;28;20214;-61
2022/04/09 12:03:30;;;;;;;3.53;2.03;;;15.70;97.30;;;;;;5114505;27;20198;-61
2022/04/09 12:06:01;;;;;;;4.83;1.60;;;15.90;96.70;;;;;;5102346;28;20207;-60
2022/04/09 12:08:33;;;;;;;3.77;2.07;;;16.10;96.90;;;;;;5095099;27;20199;-61
2022/04/09 12:11:03;;;;;;;2.10;1.50;;;16.70;96.80;;;;;;5119337;27;20244;-60
2022/04/09 12:13:34;;;;;;;2.87;1.60;;;16.60;97.10;;;;;;5107014;28;20286;-59
2022/04/09 12:16:15;;;;;;;2.67;1.70;;;16.70;96.90;;;;;;5109315;27;20272;-60
2022/04/09 12:18:46;;;;;;;1.50;1.40;;;16.80;95.80;;;;;;5109215;28;20625;-60
2022/04/09 12:21:19;;;;;;;2.97;1.80;;;16.70;95.70;;;;;;5104707;27;20210;-61
2022/04/09 12:23:47;;;;;;;2.13;1.77;;;17.00;95.90;;;;;;5105316;27;20283;-60
2022/04/09 12:26:22;;;;;;;3.13;2.27;;;17.20;96.40;;;;;;5102848;28;20195;-60
2022/04/09 12:29:11;;;;;;;2.27;2.07;;;17.00;96.40;;;;;;5109545;27;20221;-61
2022/04/09 12:31:40;;;;;;;2.17;1.60;;;17.00;95.70;;;;;;5106257;27;20195;-61
2022/04/09 12:34:10;;;;;;;1.50;1.40;;;16.70;95.90;;;;;;5109601;28;20195;-60
2022/04/09 12:36:58;;;;;;;1.90;1.40;;;16.40;94.40;;;;;;5110055;27;20196;-60
2022/04/09 12:39:27;;;;;;;1.60;1.50;;;16.20;93.30;;;;;;5111697;27;20201;-60
2022/04/09 12:41:56;;;;;;;1.87;1.30;;;16.10;94.50;;;;;;5107010;28;20608;-61
2022/04/09 12:44:28;;;;;;;3.43;1.83;;;16.10;93.90;;;;;;5117262;27;20202;-60
2022/04/09 12:46:56;;;;;;;2.73;1.87;;;16.00;95.30;;;;;;5114766;27;20292;-60
2022/04/09 12:49:30;;;;;;;3.50;2.20;;;16.00;95.90;;;;;;5119942;27;20191;-60
2022/04/09 12:51:59;;;;;;;3.53;1.93;;;16.10;95.80;;;;;;5105742;27;20542;-61
2022/04/09 12:54:28;;;;;;;2.17;1.77;;;15.90;95.80;;;;;;5112730;27;20879;-61
2022/04/09 12:56:57;;;;;;;3.63;1.53;;;15.80;95.70;;;;;;5110956;28;20197;-61
2022/04/09 12:59:26;;;;;;;2.40;2.00;;;15.50;94.40;;;;;;5111357;27;20273;-61
2022/04/09 13:01:54;;;;;;;1.90;1.80;;;15.10;95.80;;;;;;5101243;27;20288;-61
2022/04/09 13:04:23;;;;;;;3.83;1.87;;;14.90;95.80;;;;;;5121014;27;20190;-61